sensor_id;sensor_type;location;lat;lon;timestamp;pressure;altitude;pressure_sealevel;temperature;humidity
27144;BME280;14672;50.250;8.312;2022-12-07T00:01:29;98903.75;;;7.31;68.18
27144;BME280;14672;50.250;8.312;2022-12-07T00:03:58;98906.66;;;7.28;67.83
27144;BME280;14672;50.250;8.312;2022-12-07T00:06:38;98903.38;;;7.29;68.12
27144;BME280;14672;50.250;8.312;2022-12-07T00:09:06;98892.88;;;7.30;67.89
27144;BME280;14672;50.250;8.312;2022-12-07T00:11:33;98897.72;;;7.29;67.67
27144;BME280;14672;50.250;8.312;2022-12-07T00:14:03;98890.13;;;7.26;67.70
27144;BME280;14672;50.250;8.312;2022-12-07T00:16:32;98901.00;;;7.28;68.04
27144;BME280;14672;50.250;8.312;2022-12-07T00:18:59;98887.66;;;7.28;67.83
27144;BME280;14672;50.250;8.312;2022-12-07T00:21:29;98889.31;;;7.26;68.28
27144;BME280;14672;50.250;8.312;2022-12-07T00:23:56;98889.69;;;7.28;68.23
27144;BME280;14672;50.250;8.312;2022-12-07T00:26:31;98891.25;;;7.29;68.49
27144;BME280;14672;50.250;8.312;2022-12-07T00:29:02;98886.41;;;7.29;68.68
27144;BME280;14672;50.250;8.312;2022-12-07T00:31:35;98882.19;;;7.37;68.45
27144;BME280;14672;50.250;8.312;2022-12-07T00:34:06;98876.63;;;7.34;68.61
27144;BME280;14672;50.250;8.312;2022-12-07T00:36:32;98876.19;;;7.35;68.44
27144;BME280;14672;50.250;8.312;2022-12-07T00:38:59;98867.34;;;7.33;68.61
27144;BME280;14672;50.250;8.312;2022-12-07T00:41:27;98867.34;;;7.33;68.32
27144;BME280;14672;50.250;8.312;2022-12-07T00:43:53;98867.81;;;7.32;68.16
27144;BME280;14672;50.250;8.312;2022-12-07T00:46:21;98863.69;;;7.36;68.13
27144;BME280;14672;50.250;8.312;2022-12-07T00:48:48;98861.19;;;7.38;68.39
27144;BME280;14672;50.250;8.312;2022-12-07T00:51:16;98868.53;;;7.36;68.20
27144;BME280;14672;50.250;8.312;2022-12-07T00:53:43;98873.63;;;7.41;67.99
27144;BME280;14672;50.250;8.312;2022-12-07T00:56:14;98867.56;;;7.42;68.18
27144;BME280;14672;50.250;8.312;2022-12-07T00:58:40;98864.38;;;7.40;68.31
27144;BME280;14672;50.250;8.312;2022-12-07T01:01:08;98862.34;;;7.41;68.54
27144;BME280;14672;50.250;8.312;2022-12-07T01:03:34;98865.63;;;7.39;68.52
27144;BME280;14672;50.250;8.312;2022-12-07T01:06:02;98850.59;;;7.42;68.33
27144;BME280;14672;50.250;8.312;2022-12-07T01:08:29;98861.91;;;7.42;68.37
27144;BME280;14672;50.250;8.312;2022-12-07T01:11:06;98859.09;;;7.42;69.19
27144;BME280;14672;50.250;8.312;2022-12-07T01:13:34;98858.19;;;7.45;68.77
27144;BME280;14672;50.250;8.312;2022-12-07T01:16:03;98847.06;;;7.38;68.98
27144;BME280;14672;50.250;8.312;2022-12-07T01:18:34;98855.03;;;7.43;69.02
27144;BME280;14672;50.250;8.312;2022-12-07T01:21:04;98852.53;;;7.45;68.85
27144;BME280;14672;50.250;8.312;2022-12-07T01:23:32;98855.81;;;7.44;68.93
27144;BME280;14672;50.250;8.312;2022-12-07T01:26:00;98861.09;;;7.42;68.59
27144;BME280;14672;50.250;8.312;2022-12-07T01:28:27;98856.25;;;7.42;68.75
27144;BME280;14672;50.250;8.312;2022-12-07T01:31:05;98860.78;;;7.40;69.12
27144;BME280;14672;50.250;8.312;2022-12-07T01:33:35;98852.28;;;7.40;68.52
27144;BME280;14672;50.250;8.312;2022-12-07T01:38:41;98859.59;;;7.37;68.53
27144;BME280;14672;50.250;8.312;2022-12-07T01:41:07;98857.66;;;7.34;68.35
27144;BME280;14672;50.250;8.312;2022-12-07T01:43:34;98853.59;;;7.35;68.36
27144;BME280;14672;50.250;8.312;2022-12-07T01:46:02;98860.31;;;7.41;68.23
27144;BME280;14672;50.250;8.312;2022-12-07T01:48:40;98847.78;;;7.42;68.32
27144;BME280;14672;50.250;8.312;2022-12-07T01:51:13;98847.34;;;7.44;67.88
27144;BME280;14672;50.250;8.312;2022-12-07T01:53:43;98851.56;;;7.36;67.80
27144;BME280;14672;50.250;8.312;2022-12-07T01:56:18;98848.38;;;7.34;67.93
27144;BME280;14672;50.250;8.312;2022-12-07T01:58:45;98845.75;;;7.43;67.54
27144;BME280;14672;50.250;8.312;2022-12-07T02:01:10;98843.00;;;7.39;67.57
27144;BME280;14672;50.250;8.312;2022-12-07T02:03:43;98848.75;;;7.36;67.82
27144;BME280;14672;50.250;8.312;2022-12-07T02:06:13;98834.53;;;7.39;68.03
27144;BME280;14672;50.250;8.312;2022-12-07T02:08:42;98830.09;;;7.38;67.95
27144;BME280;14672;50.250;8.312;2022-12-07T02:11:08;98831.69;;;7.39;68.08
27144;BME280;14672;50.250;8.312;2022-12-07T02:13:38;98834.63;;;7.36;68.01
27144;BME280;14672;50.250;8.312;2022-12-07T02:16:35;98838.25;;;7.36;68.41
27144;BME280;14672;50.250;8.312;2022-12-07T02:28:35;98823.81;;;7.31;68.07
27144;BME280;14672;50.250;8.312;2022-12-07T02:31:10;98822.69;;;7.28;67.82
27144;BME280;14672;50.250;8.312;2022-12-07T02:33:45;98823.44;;;7.29;68.00
27144;BME280;14672;50.250;8.312;2022-12-07T02:36:27;98813.81;;;7.26;67.88
27144;BME280;14672;50.250;8.312;2022-12-07T02:39:07;98816.31;;;7.24;68.46
27144;BME280;14672;50.250;8.312;2022-12-07T02:41:51;98810.91;;;7.30;68.15
27144;BME280;14672;50.250;8.312;2022-12-07T02:44:23;98814.19;;;7.28;67.61
27144;BME280;14672;50.250;8.312;2022-12-07T02:46:57;98818.25;;;7.27;68.23
27144;BME280;14672;50.250;8.312;2022-12-07T02:49:27;98820.72;;;7.25;68.51
27144;BME280;14672;50.250;8.312;2022-12-07T02:51:53;98817.03;;;7.28;68.23
27144;BME280;14672;50.250;8.312;2022-12-07T02:54:21;98810.50;;;7.31;68.11
27144;BME280;14672;50.250;8.312;2022-12-07T02:57:22;98812.09;;;7.32;68.49
27144;BME280;14672;50.250;8.312;2022-12-07T03:00:13;98808.97;;;7.27;68.28
27144;BME280;14672;50.250;8.312;2022-12-07T03:02:52;98807.47;;;7.22;67.58
27144;BME280;14672;50.250;8.312;2022-12-07T03:11:06;98814.53;;;7.30;68.51
27144;BME280;14672;50.250;8.312;2022-12-07T03:16:21;98797.97;;;7.32;68.72
27144;BME280;14672;50.250;8.312;2022-12-07T03:18:58;98798.38;;;7.31;68.68
27144;BME280;14672;50.250;8.312;2022-12-07T03:21:34;98799.19;;;7.31;68.40
27144;BME280;14672;50.250;8.312;2022-12-07T03:24:10;98789.63;;;7.25;68.22
27144;BME280;14672;50.250;8.312;2022-12-07T03:26:48;98792.44;;;7.25;68.77
27144;BME280;14672;50.250;8.312;2022-12-07T03:29:24;98793.88;;;7.33;68.18
27144;BME280;14672;50.250;8.312;2022-12-07T03:32:00;98797.59;;;7.30;68.39
27144;BME280;14672;50.250;8.312;2022-12-07T03:34:38;98787.09;;;7.31;68.23
27144;BME280;14672;50.250;8.312;2022-12-07T03:37:14;98786.38;;;7.27;68.72
27144;BME280;14672;50.250;8.312;2022-12-07T03:42:39;98788.78;;;7.28;68.44
27144;BME280;14672;50.250;8.312;2022-12-07T03:45:06;98792.81;;;7.27;68.82
27144;BME280;14672;50.250;8.312;2022-12-07T03:53:26;98791.78;;;7.37;69.18
27144;BME280;14672;50.250;8.312;2022-12-07T03:55:56;98787.38;;;7.36;68.57
27144;BME280;14672;50.250;8.312;2022-12-07T03:58:23;98783.84;;;7.32;69.22
27144;BME280;14672;50.250;8.312;2022-12-07T04:00:50;98783.38;;;7.34;69.33
27144;BME280;14672;50.250;8.312;2022-12-07T04:03:17;98784.53;;;7.36;69.09
27144;BME280;14672;50.250;8.312;2022-12-07T04:05:43;98787.88;;;7.31;68.76
27144;BME280;14672;50.250;8.312;2022-12-07T04:08:09;98788.16;;;7.37;69.09
27144;BME280;14672;50.250;8.312;2022-12-07T04:10:35;98788.59;;;7.35;69.15
27144;BME280;14672;50.250;8.312;2022-12-07T04:13:01;98791.78;;;7.37;68.96
27144;BME280;14672;50.250;8.312;2022-12-07T04:15:27;98788.09;;;7.40;69.37
27144;BME280;14672;50.250;8.312;2022-12-07T04:17:53;98777.22;;;7.39;69.05
27144;BME280;14672;50.250;8.312;2022-12-07T04:20:21;98780.84;;;7.39;68.85
27144;BME280;14672;50.250;8.312;2022-12-07T04:22:46;98773.75;;;7.31;69.22
27144;BME280;14672;50.250;8.312;2022-12-07T04:25:12;98780.75;;;7.43;69.17
27144;BME280;14672;50.250;8.312;2022-12-07T04:27:38;98776.78;;;7.40;69.45
27144;BME280;14672;50.250;8.312;2022-12-07T04:30:06;98777.13;;;7.42;69.43
27144;BME280;14672;50.250;8.312;2022-12-07T04:32:32;98768.94;;;7.48;69.39
27144;BME280;14672;50.250;8.312;2022-12-07T04:34:57;98771.28;;;7.49;69.62
27144;BME280;14672;50.250;8.312;2022-12-07T04:37:24;98774.50;;;7.51;69.36
27144;BME280;14672;50.250;8.312;2022-12-07T04:39:50;98783.41;;;7.50;69.49
27144;BME280;14672;50.250;8.312;2022-12-07T04:42:16;98770.88;;;7.51;69.46
27144;BME280;14672;50.250;8.312;2022-12-07T04:44:41;98782.50;;;7.53;69.81
27144;BME280;14672;50.250;8.312;2022-12-07T04:47:07;98775.53;;;7.57;69.43
27144;BME280;14672;50.250;8.312;2022-12-07T04:49:33;98780.13;;;7.51;69.57
27144;BME280;14672;50.250;8.312;2022-12-07T04:51:59;98785.25;;;7.56;70.31
27144;BME280;14672;50.250;8.312;2022-12-07T04:54:25;98777.84;;;7.63;69.49
27144;BME280;14672;50.250;8.312;2022-12-07T04:56:50;98781.91;;;7.62;69.70
27144;BME280;14672;50.250;8.312;2022-12-07T04:59:17;98774.13;;;7.66;69.30
27144;BME280;14672;50.250;8.312;2022-12-07T05:01:43;98778.13;;;7.68;69.25
27144;BME280;14672;50.250;8.312;2022-12-07T05:04:10;98767.94;;;7.71;69.28
27144;BME280;14672;50.250;8.312;2022-12-07T05:06:36;98772.00;;;7.70;69.43
27144;BME280;14672;50.250;8.312;2022-12-07T05:09:02;98778.03;;;7.72;69.47
27144;BME280;14672;50.250;8.312;2022-12-07T05:11:29;98777.31;;;7.68;69.65
27144;BME280;14672;50.250;8.312;2022-12-07T05:14:19;98768.28;;;7.73;69.54
27144;BME280;14672;50.250;8.312;2022-12-07T05:16:48;98776.34;;;7.74;69.41
27144;BME280;14672;50.250;8.312;2022-12-07T05:19:15;98776.94;;;7.82;69.24
27144;BME280;14672;50.250;8.312;2022-12-07T05:21:41;98779.78;;;7.82;68.88
27144;BME280;14672;50.250;8.312;2022-12-07T05:24:10;98780.59;;;7.82;68.68
27144;BME280;14672;50.250;8.312;2022-12-07T05:26:37;98782.59;;;7.82;68.39
27144;BME280;14672;50.250;8.312;2022-12-07T05:29:03;98779.53;;;7.76;68.82
27144;BME280;14672;50.250;8.312;2022-12-07T05:31:29;98779.34;;;7.83;68.69
27144;BME280;14672;50.250;8.312;2022-12-07T05:33:55;98770.16;;;7.79;68.60
27144;BME280;14672;50.250;8.312;2022-12-07T05:36:21;98774.94;;;7.82;68.81
27144;BME280;14672;50.250;8.312;2022-12-07T05:38:47;98774.72;;;7.89;68.36
27144;BME280;14672;50.250;8.312;2022-12-07T05:41:16;98774.03;;;7.85;68.87
27144;BME280;14672;50.250;8.312;2022-12-07T05:44:04;98773.94;;;7.89;69.20
27144;BME280;14672;50.250;8.312;2022-12-07T05:46:30;98781.19;;;7.90;69.26
27144;BME280;14672;50.250;8.312;2022-12-07T05:48:56;98772.72;;;7.90;69.20
27144;BME280;14672;50.250;8.312;2022-12-07T05:51:21;98775.72;;;7.83;69.51
27144;BME280;14672;50.250;8.312;2022-12-07T05:53:47;98781.72;;;7.85;69.30
27144;BME280;14672;50.250;8.312;2022-12-07T05:56:13;98777.66;;;7.86;69.77
27144;BME280;14672;50.250;8.312;2022-12-07T05:58:39;98771.91;;;7.89;69.42
27144;BME280;14672;50.250;8.312;2022-12-07T06:01:23;98777.31;;;7.84;69.31
27144;BME280;14672;50.250;8.312;2022-12-07T06:03:49;98779.97;;;7.91;69.47
27144;BME280;14672;50.250;8.312;2022-12-07T06:06:14;98771.81;;;7.93;69.95
27144;BME280;14672;50.250;8.312;2022-12-07T06:08:40;98783.22;;;7.89;69.76
27144;BME280;14672;50.250;8.312;2022-12-07T06:11:06;98770.78;;;7.87;69.75
27144;BME280;14672;50.250;8.312;2022-12-07T06:13:50;98773.13;;;7.88;69.20
27144;BME280;14672;50.250;8.312;2022-12-07T06:16:16;98775.09;;;7.91;69.43
27144;BME280;14672;50.250;8.312;2022-12-07T06:18:41;98771.47;;;7.91;69.80
27144;BME280;14672;50.250;8.312;2022-12-07T06:21:07;98772.19;;;7.95;69.32
27144;BME280;14672;50.250;8.312;2022-12-07T06:23:33;98776.94;;;7.98;68.85
27144;BME280;14672;50.250;8.312;2022-12-07T06:25:59;98774.63;;;7.93;69.45
27144;BME280;14672;50.250;8.312;2022-12-07T06:28:25;98764.22;;;7.90;68.40
27144;BME280;14672;50.250;8.312;2022-12-07T06:31:01;98771.97;;;8.02;67.89
27144;BME280;14672;50.250;8.312;2022-12-07T06:33:27;98781.59;;;8.04;68.32
27144;BME280;14672;50.250;8.312;2022-12-07T06:35:54;98786.56;;;8.00;68.09
27144;BME280;14672;50.250;8.312;2022-12-07T06:38:20;98782.06;;;8.03;68.30
27144;BME280;14672;50.250;8.312;2022-12-07T06:40:46;98778.06;;;8.00;68.30
27144;BME280;14672;50.250;8.312;2022-12-07T06:43:13;98776.03;;;8.01;68.22
27144;BME280;14672;50.250;8.312;2022-12-07T06:45:40;98775.63;;;8.02;68.14
27144;BME280;14672;50.250;8.312;2022-12-07T06:48:06;98780.47;;;8.02;68.40
27144;BME280;14672;50.250;8.312;2022-12-07T06:50:32;98777.66;;;8.02;68.26
27144;BME280;14672;50.250;8.312;2022-12-07T06:52:58;98786.84;;;8.06;67.77
27144;BME280;14672;50.250;8.312;2022-12-07T06:55:23;98784.44;;;8.04;67.71
27144;BME280;14672;50.250;8.312;2022-12-07T06:57:49;98787.25;;;8.04;67.44
27144;BME280;14672;50.250;8.312;2022-12-07T07:00:15;98785.25;;;8.05;67.74
27144;BME280;14672;50.250;8.312;2022-12-07T07:02:41;98788.44;;;8.07;67.67
27144;BME280;14672;50.250;8.312;2022-12-07T07:05:07;98796.75;;;7.98;67.49
27144;BME280;14672;50.250;8.312;2022-12-07T07:07:33;98788.69;;;7.96;67.16
27144;BME280;14672;50.250;8.312;2022-12-07T07:09:59;98792.50;;;8.06;67.44
27144;BME280;14672;50.250;8.312;2022-12-07T07:12:25;98800.28;;;8.02;67.86
27144;BME280;14672;50.250;8.312;2022-12-07T07:14:50;98801.88;;;8.03;68.17
27144;BME280;14672;50.250;8.312;2022-12-07T07:17:16;98799.47;;;8.01;67.86
27144;BME280;14672;50.250;8.312;2022-12-07T07:19:42;98799.94;;;8.00;67.39
27144;BME280;14672;50.250;8.312;2022-12-07T07:22:07;98796.22;;;8.03;67.58
27144;BME280;14672;50.250;8.312;2022-12-07T07:24:33;98799.13;;;7.99;67.56
27144;BME280;14672;50.250;8.312;2022-12-07T07:26:59;98803.09;;;8.02;67.53
27144;BME280;14672;50.250;8.312;2022-12-07T07:29:25;98803.47;;;7.88;67.83
27144;BME280;14672;50.250;8.312;2022-12-07T07:31:50;98803.53;;;8.00;67.62
27144;BME280;14672;50.250;8.312;2022-12-07T07:34:16;98798.16;;;8.06;67.28
27144;BME280;14672;50.250;8.312;2022-12-07T07:36:42;98801.50;;;8.01;67.43
27144;BME280;14672;50.250;8.312;2022-12-07T07:39:09;98806.31;;;8.04;66.97
27144;BME280;14672;50.250;8.312;2022-12-07T07:41:38;98806.63;;;8.06;67.16
27144;BME280;14672;50.250;8.312;2022-12-07T07:44:04;98811.88;;;8.08;66.86
27144;BME280;14672;50.250;8.312;2022-12-07T07:46:30;98810.16;;;8.10;66.88
27144;BME280;14672;50.250;8.312;2022-12-07T07:48:55;98813.91;;;8.07;66.36
27144;BME280;14672;50.250;8.312;2022-12-07T07:51:21;98807.16;;;8.01;66.95
27144;BME280;14672;50.250;8.312;2022-12-07T07:53:47;98809.91;;;8.04;67.11
27144;BME280;14672;50.250;8.312;2022-12-07T07:56:13;98802.75;;;8.00;66.71
27144;BME280;14672;50.250;8.312;2022-12-07T07:58:39;98817.25;;;8.02;67.26
27144;BME280;14672;50.250;8.312;2022-12-07T08:01:08;98807.25;;;7.97;67.49
27144;BME280;14672;50.250;8.312;2022-12-07T08:03:35;98812.28;;;8.06;67.20
27144;BME280;14672;50.250;8.312;2022-12-07T08:06:03;98810.69;;;8.05;67.24
27144;BME280;14672;50.250;8.312;2022-12-07T08:08:29;98814.59;;;8.11;67.42
27144;BME280;14672;50.250;8.312;2022-12-07T08:10:55;98813.44;;;8.09;68.15
27144;BME280;14672;50.250;8.312;2022-12-07T08:13:21;98815.41;;;8.12;67.40
27144;BME280;14672;50.250;8.312;2022-12-07T08:15:47;98810.50;;;8.12;66.96
27144;BME280;14672;50.250;8.312;2022-12-07T08:18:14;98816.16;;;8.12;68.01
27144;BME280;14672;50.250;8.312;2022-12-07T08:20:41;98816.16;;;8.12;67.97
27144;BME280;14672;50.250;8.312;2022-12-07T08:23:11;98812.56;;;8.12;68.29
27144;BME280;14672;50.250;8.312;2022-12-07T08:25:37;98814.41;;;8.18;67.73
27144;BME280;14672;50.250;8.312;2022-12-07T08:28:04;98809.88;;;8.21;67.46
27144;BME280;14672;50.250;8.312;2022-12-07T08:30:30;98810.25;;;8.23;67.86
27144;BME280;14672;50.250;8.312;2022-12-07T08:32:57;98813.59;;;8.18;67.74
27144;BME280;14672;50.250;8.312;2022-12-07T08:35:23;98817.22;;;8.18;67.80
27144;BME280;14672;50.250;8.312;2022-12-07T08:37:49;98815.91;;;8.23;67.14
27144;BME280;14672;50.250;8.312;2022-12-07T08:40:15;98822.00;;;8.21;66.63
27144;BME280;14672;50.250;8.312;2022-12-07T08:42:49;98812.91;;;8.30;66.56
27144;BME280;14672;50.250;8.312;2022-12-07T08:45:17;98818.75;;;8.39;66.72
27144;BME280;14672;50.250;8.312;2022-12-07T08:47:57;98816.25;;;8.41;66.38
27144;BME280;14672;50.250;8.312;2022-12-07T08:50:28;98826.44;;;8.38;66.87
27144;BME280;14672;50.250;8.312;2022-12-07T08:55:23;98818.63;;;8.26;66.26
27144;BME280;14672;50.250;8.312;2022-12-07T08:57:50;98820.59;;;8.29;67.24
27144;BME280;14672;50.250;8.312;2022-12-07T09:00:16;98816.16;;;8.28;66.45
27144;BME280;14672;50.250;8.312;2022-12-07T09:02:44;98821.56;;;8.39;66.27
27144;BME280;14672;50.250;8.312;2022-12-07T09:05:11;98812.38;;;8.19;66.92
27144;BME280;14672;50.250;8.312;2022-12-07T09:07:42;98821.47;;;8.26;66.98
27144;BME280;14672;50.250;8.312;2022-12-07T09:10:09;98826.63;;;8.31;66.84
27144;BME280;14672;50.250;8.312;2022-12-07T09:12:35;98831.72;;;8.20;67.25
27144;BME280;14672;50.250;8.312;2022-12-07T09:15:01;98821.78;;;8.32;66.99
27144;BME280;14672;50.250;8.312;2022-12-07T09:17:31;98827.44;;;8.32;66.58
27144;BME280;14672;50.250;8.312;2022-12-07T09:19:57;98829.78;;;8.33;66.37
27144;BME280;14672;50.250;8.312;2022-12-07T09:22:23;98831.03;;;8.32;66.25
27144;BME280;14672;50.250;8.312;2022-12-07T09:24:49;98829.59;;;8.24;66.92
27144;BME280;14672;50.250;8.312;2022-12-07T09:27:15;98839.44;;;8.20;66.82
27144;BME280;14672;50.250;8.312;2022-12-07T09:29:43;98835.81;;;8.35;66.46
27144;BME280;14672;50.250;8.312;2022-12-07T09:32:08;98835.97;;;8.28;66.64
27144;BME280;14672;50.250;8.312;2022-12-07T09:34:34;98834.66;;;8.33;66.30
27144;BME280;14672;50.250;8.312;2022-12-07T09:37:01;98839.44;;;8.36;66.36
27144;BME280;14672;50.250;8.312;2022-12-07T09:39:28;98838.34;;;8.46;66.66
27144;BME280;14672;50.250;8.312;2022-12-07T09:41:54;98837.94;;;8.47;66.25
27144;BME280;14672;50.250;8.312;2022-12-07T09:44:25;98833.50;;;8.46;66.18
27144;BME280;14672;50.250;8.312;2022-12-07T09:46:52;98832.50;;;8.53;65.60
27144;BME280;14672;50.250;8.312;2022-12-07T09:49:22;98832.31;;;8.44;65.54
27144;BME280;14672;50.250;8.312;2022-12-07T09:52:02;98835.44;;;8.49;66.13
27144;BME280;14672;50.250;8.312;2022-12-07T09:54:29;98826.94;;;8.49;65.61
27144;BME280;14672;50.250;8.312;2022-12-07T09:56:56;98825.16;;;8.56;65.63
27144;BME280;14672;50.250;8.312;2022-12-07T09:59:22;98825.88;;;8.60;65.39
27144;BME280;14672;50.250;8.312;2022-12-07T10:01:49;98813.97;;;8.65;65.08
27144;BME280;14672;50.250;8.312;2022-12-07T10:04:24;98809.78;;;8.69;65.47
27144;BME280;14672;50.250;8.312;2022-12-07T10:06:51;98815.94;;;8.68;64.66
27144;BME280;14672;50.250;8.312;2022-12-07T10:09:21;98809.16;;;8.78;64.74
27144;BME280;14672;50.250;8.312;2022-12-07T10:12:09;98801.78;;;8.80;64.46
27144;BME280;14672;50.250;8.312;2022-12-07T10:14:39;98798.06;;;8.83;64.35
27144;BME280;14672;50.250;8.312;2022-12-07T10:17:41;98796.00;;;8.84;64.21
27144;BME280;14672;50.250;8.312;2022-12-07T10:20:26;98800.44;;;8.85;63.93
27144;BME280;14672;50.250;8.312;2022-12-07T10:23:03;98788.66;;;8.86;63.43
27144;BME280;14672;50.250;8.312;2022-12-07T10:25:36;98784.09;;;8.76;63.38
27144;BME280;14672;50.250;8.312;2022-12-07T10:33:54;98788.78;;;8.83;63.67
27144;BME280;14672;50.250;8.312;2022-12-07T10:36:37;98787.50;;;8.84;63.79
27144;BME280;14672;50.250;8.312;2022-12-07T10:39:13;98786.97;;;8.89;64.16
27144;BME280;14672;50.250;8.312;2022-12-07T10:42:02;98776.97;;;8.84;63.90
27144;BME280;14672;50.250;8.312;2022-12-07T10:44:32;98788.59;;;8.61;65.02
27144;BME280;14672;50.250;8.312;2022-12-07T10:47:34;98788.47;;;8.65;64.81
27144;BME280;14672;50.250;8.312;2022-12-07T11:01:45;98755.56;;;8.71;63.78
27144;BME280;14672;50.250;8.312;2022-12-07T11:07:14;98759.28;;;8.68;64.52
27144;BME280;14672;50.250;8.312;2022-12-07T11:29:43;98738.84;;;9.02;63.47
27144;BME280;14672;50.250;8.312;2022-12-07T11:37:36;98741.72;;;8.73;63.83
27144;BME280;14672;50.250;8.312;2022-12-07T11:40:13;98727.03;;;8.90;63.00
27144;BME280;14672;50.250;8.312;2022-12-07T11:45:30;98737.34;;;8.97;62.31
27144;BME280;14672;50.250;8.312;2022-12-07T11:48:22;98729.97;;;8.87;62.46
27144;BME280;14672;50.250;8.312;2022-12-07T11:50:54;98716.38;;;8.82;62.52
27144;BME280;14672;50.250;8.312;2022-12-07T11:53:46;98718.50;;;8.78;62.76
27144;BME280;14672;50.250;8.312;2022-12-07T11:56:20;98721.25;;;8.81;62.66
27144;BME280;14672;50.250;8.312;2022-12-07T11:59:23;98706.28;;;8.81;62.58
27144;BME280;14672;50.250;8.312;2022-12-07T12:02:14;98713.88;;;8.71;62.75
27144;BME280;14672;50.250;8.312;2022-12-07T12:07:43;98714.31;;;8.70;62.27
27144;BME280;14672;50.250;8.312;2022-12-07T12:10:35;98707.75;;;8.85;62.06
27144;BME280;14672;50.250;8.312;2022-12-07T12:13:28;98711.41;;;8.86;62.21
27144;BME280;14672;50.250;8.312;2022-12-07T12:21:47;98707.97;;;8.66;61.90
27144;BME280;14672;50.250;8.312;2022-12-07T12:24:25;98697.31;;;8.70;62.02
27144;BME280;14672;50.250;8.312;2022-12-07T12:27:09;98700.25;;;8.66;62.44
27144;BME280;14672;50.250;8.312;2022-12-07T12:29:42;98702.66;;;8.68;61.98
27144;BME280;14672;50.250;8.312;2022-12-07T12:37:49;98695.16;;;8.74;63.02
27144;BME280;14672;50.250;8.312;2022-12-07T12:42:48;98699.81;;;8.68;63.78
27144;BME280;14672;50.250;8.312;2022-12-07T12:45:28;98698.34;;;8.76;63.79
27144;BME280;14672;50.250;8.312;2022-12-07T12:50:28;98687.00;;;8.76;63.49
27144;BME280;14672;50.250;8.312;2022-12-07T12:58:32;98682.84;;;9.06;64.63
27144;BME280;14672;50.250;8.312;2022-12-07T13:04:01;98671.19;;;9.04;64.21
27144;BME280;14672;50.250;8.312;2022-12-07T13:08:56;98661.88;;;9.03;63.81
27144;BME280;14672;50.250;8.312;2022-12-07T13:11:54;98668.69;;;9.06;63.91
27144;BME280;14672;50.250;8.312;2022-12-07T13:14:57;98674.91;;;9.13;63.67
27144;BME280;14672;50.250;8.312;2022-12-07T13:20:04;98663.81;;;9.06;63.76
27144;BME280;14672;50.250;8.312;2022-12-07T13:28:15;98668.13;;;9.11;64.27
27144;BME280;14672;50.250;8.312;2022-12-07T13:30:58;98663.94;;;9.15;63.63
27144;BME280;14672;50.250;8.312;2022-12-07T13:33:28;98663.13;;;9.15;64.20
27144;BME280;14672;50.250;8.312;2022-12-07T13:35:55;98662.66;;;9.16;63.97
27144;BME280;14672;50.250;8.312;2022-12-07T13:38:32;98666.53;;;9.22;63.77
27144;BME280;14672;50.250;8.312;2022-12-07T13:41:14;98660.41;;;9.11;63.58
27144;BME280;14672;50.250;8.312;2022-12-07T13:46:26;98672.88;;;9.01;62.13
27144;BME280;14672;50.250;8.312;2022-12-07T13:48:56;98678.31;;;8.83;63.38
27144;BME280;14672;50.250;8.312;2022-12-07T13:51:26;98671.59;;;8.77;63.52
27144;BME280;14672;50.250;8.312;2022-12-07T13:54:00;98662.41;;;8.73;63.55
27144;BME280;14672;50.250;8.312;2022-12-07T13:56:36;98663.47;;;8.79;63.49
27144;BME280;14672;50.250;8.312;2022-12-07T13:59:02;98666.53;;;8.72;63.45
27144;BME280;14672;50.250;8.312;2022-12-07T14:01:33;98653.94;;;8.73;64.26
27144;BME280;14672;50.250;8.312;2022-12-07T14:04:36;98656.66;;;8.76;64.93
27144;BME280;14672;50.250;8.312;2022-12-07T14:07:23;98657.44;;;8.77;65.16
27144;BME280;14672;50.250;8.312;2022-12-07T14:10:31;98656.22;;;8.78;64.45
27144;BME280;14672;50.250;8.312;2022-12-07T14:12:59;98659.38;;;8.80;63.90
27144;BME280;14672;50.250;8.312;2022-12-07T14:15:32;98659.69;;;8.69;64.12
27144;BME280;14672;50.250;8.312;2022-12-07T14:18:00;98659.94;;;8.62;64.03
27144;BME280;14672;50.250;8.312;2022-12-07T14:23:01;98665.81;;;8.55;64.42
27144;BME280;14672;50.250;8.312;2022-12-07T14:25:52;98666.59;;;8.56;64.25
27144;BME280;14672;50.250;8.312;2022-12-07T14:28:31;98658.13;;;8.56;64.35
27144;BME280;14672;50.250;8.312;2022-12-07T14:30:58;98660.16;;;8.55;64.23
27144;BME280;14672;50.250;8.312;2022-12-07T14:33:24;98657.44;;;8.52;64.46
27144;BME280;14672;50.250;8.312;2022-12-07T14:35:50;98652.31;;;8.46;64.85
27144;BME280;14672;50.250;8.312;2022-12-07T14:38:24;98654.69;;;8.48;65.46
27144;BME280;14672;50.250;8.312;2022-12-07T14:40:51;98655.47;;;8.48;64.86
27144;BME280;14672;50.250;8.312;2022-12-07T14:43:19;98656.28;;;8.49;64.58
27144;BME280;14672;50.250;8.312;2022-12-07T14:45:46;98646.09;;;8.52;64.05
27144;BME280;14672;50.250;8.312;2022-12-07T14:48:14;98650.06;;;8.54;64.13
27144;BME280;14672;50.250;8.312;2022-12-07T14:50:52;98644.50;;;8.51;64.77
27144;BME280;14672;50.250;8.312;2022-12-07T14:53:22;98640.19;;;8.46;64.49
27144;BME280;14672;50.250;8.312;2022-12-07T14:55:54;98641.56;;;8.54;64.07
27144;BME280;14672;50.250;8.312;2022-12-07T14:58:20;98642.47;;;8.51;64.57
27144;BME280;14672;50.250;8.312;2022-12-07T15:00:46;98643.72;;;8.50;64.92
27144;BME280;14672;50.250;8.312;2022-12-07T15:03:13;98645.75;;;8.49;64.85
27144;BME280;14672;50.250;8.312;2022-12-07T15:08:18;98641.00;;;8.46;65.08
27144;BME280;14672;50.250;8.312;2022-12-07T15:10:44;98641.00;;;8.46;64.79
27144;BME280;14672;50.250;8.312;2022-12-07T15:13:10;98648.25;;;8.47;64.55
27144;BME280;14672;50.250;8.312;2022-12-07T15:15:55;98638.72;;;8.41;64.77
27144;BME280;14672;50.250;8.312;2022-12-07T15:18:22;98633.97;;;8.38;64.70
27144;BME280;14672;50.250;8.312;2022-12-07T15:20:49;98642.00;;;8.40;65.15
27144;BME280;14672;50.250;8.312;2022-12-07T15:23:15;98637.59;;;8.39;65.11
27144;BME280;14672;50.250;8.312;2022-12-07T15:25:46;98634.75;;;8.39;65.45
27144;BME280;14672;50.250;8.312;2022-12-07T15:28:14;98638.44;;;8.23;65.63
27144;BME280;14672;50.250;8.312;2022-12-07T15:30:42;98634.69;;;8.26;65.39
27144;BME280;14672;50.250;8.312;2022-12-07T15:33:09;98626.91;;;8.30;64.90
27144;BME280;14672;50.250;8.312;2022-12-07T15:35:43;98643.19;;;8.26;65.20